createdAt,value
2024-01-20T00:00:48.410Z,6.65
2024-01-20T00:03:15.539Z,5.90
2024-01-20T00:05:43.066Z,5.80
2024-01-20T00:08:10.253Z,5.63
2024-01-20T00:10:38.365Z,4.80
2024-01-20T00:13:05.869Z,5.63
2024-01-20T00:15:33.765Z,5.97
2024-01-20T00:18:01.229Z,4.82
2024-01-20T00:20:28.481Z,5.70
2024-01-20T00:22:55.782Z,6.18
2024-01-20T00:25:23.052Z,6.30
2024-01-20T00:27:53.817Z,5.50
2024-01-20T00:30:22.359Z,6.18
2024-01-20T00:32:49.791Z,5.43
2024-01-20T00:35:17.310Z,5.30
2024-01-20T00:37:44.413Z,5.15
2024-01-20T00:40:12.205Z,6.40
2024-01-20T00:42:39.361Z,5.25
2024-01-20T00:45:07.255Z,5.57
2024-01-20T00:47:36.786Z,5.00
2024-01-20T00:50:06.389Z,5.60
2024-01-20T00:52:33.663Z,5.20
2024-01-20T00:55:00.849Z,5.43
2024-01-20T00:57:27.924Z,6.13
2024-01-20T00:59:56.623Z,5.97
2024-01-20T01:02:26.253Z,5.65
2024-01-20T01:04:53.709Z,6.57
2024-01-20T01:07:21.050Z,6.43
2024-01-20T01:09:49.800Z,4.82
2024-01-20T01:12:17.012Z,4.68
2024-01-20T01:14:44.096Z,5.22
2024-01-20T01:17:11.291Z,5.77
2024-01-20T01:19:38.452Z,6.20
2024-01-20T01:22:05.637Z,5.75
2024-01-20T01:24:32.865Z,5.03
2024-01-20T01:27:00.006Z,5.82
2024-01-20T01:29:27.337Z,5.67
2024-01-20T01:31:55.512Z,5.65
2024-01-20T01:34:22.768Z,6.20
2024-01-20T01:36:50.048Z,5.40
2024-01-20T01:39:18.957Z,6.38
2024-01-20T01:41:46.140Z,6.33
2024-01-20T01:44:13.433Z,6.15
2024-01-20T01:46:41.294Z,6.15
2024-01-20T01:49:09.089Z,6.35
2024-01-20T01:51:36.583Z,5.88
2024-01-20T01:54:04.784Z,5.70
2024-01-20T01:56:32.756Z,5.47
2024-01-20T01:59:00.188Z,6.13
2024-01-20T02:01:27.449Z,6.30
2024-01-20T02:03:54.715Z,6.07
2024-01-20T02:06:22.330Z,6.50
2024-01-20T02:08:49.708Z,6.10
2024-01-20T02:11:17.423Z,7.10
2024-01-20T02:13:45.122Z,7.10
2024-01-20T02:16:12.357Z,7.63
2024-01-20T02:19:06.830Z,6.03
2024-01-20T02:21:35.881Z,7.35
2024-01-20T02:24:05.651Z,6.70
2024-01-20T02:26:32.909Z,6.93
2024-01-20T02:29:00.037Z,7.07
2024-01-20T02:31:27.117Z,7.03
2024-01-20T02:33:54.426Z,6.97
2024-01-20T02:36:21.702Z,6.78
2024-01-20T02:38:49.700Z,7.05
2024-01-20T02:41:16.860Z,6.85
2024-01-20T02:43:43.885Z,6.60
2024-01-20T02:46:10.880Z,7.22
2024-01-20T02:48:38.087Z,6.82
2024-01-20T02:51:05.657Z,7.68
2024-01-20T02:53:32.734Z,7.43
2024-01-20T02:55:59.873Z,7.40
2024-01-20T02:58:26.952Z,6.47
2024-01-20T03:00:54.383Z,7.43
2024-01-20T03:03:21.562Z,6.80
2024-01-20T03:05:48.826Z,7.25
2024-01-20T03:08:16.168Z,7.50
2024-01-20T03:10:43.400Z,7.57
2024-01-20T03:13:10.468Z,7.22
2024-01-20T03:15:37.596Z,8.23
2024-01-20T03:18:05.214Z,7.55
2024-01-20T03:20:32.315Z,8.13
2024-01-20T03:22:59.452Z,7.68
2024-01-20T03:25:26.528Z,7.78
2024-01-20T03:27:56.834Z,7.60
2024-01-20T03:30:23.996Z,7.82
2024-01-20T03:32:52.812Z,6.63
2024-01-20T03:35:20.253Z,8.10
2024-01-20T03:37:47.448Z,7.38
2024-01-20T03:40:15.624Z,7.85
2024-01-20T03:42:42.864Z,7.15
2024-01-20T03:45:10.583Z,7.47
2024-01-20T03:47:38.227Z,9.10
2024-01-20T03:50:07.982Z,8.18
2024-01-20T03:52:35.208Z,7.78
2024-01-20T03:55:02.326Z,7.55
2024-01-20T03:57:31.626Z,8.13
2024-01-20T03:59:59.385Z,7.22
2024-01-20T04:02:27.316Z,8.15
2024-01-20T04:04:54.835Z,7.22
2024-01-20T04:07:24.312Z,7.97
2024-01-20T04:09:51.494Z,7.53
2024-01-20T04:12:19.458Z,8.93
2024-01-20T04:14:46.636Z,7.30
2024-01-20T04:17:13.973Z,7.20
2024-01-20T04:19:41.355Z,7.63
2024-01-20T04:22:08.704Z,8.77
2024-01-20T04:24:35.858Z,7.75
2024-01-20T04:27:03.022Z,9.15
2024-01-20T04:29:30.082Z,8.27
2024-01-20T04:31:57.401Z,8.45
2024-01-20T04:34:24.590Z,7.80
2024-01-20T04:36:51.802Z,8.63
2024-01-20T04:39:18.989Z,10.80
2024-01-20T04:41:46.136Z,8.98
2024-01-20T04:44:20.430Z,15.38
2024-01-20T04:47:07.328Z,12.10
2024-01-20T04:49:40.764Z,9.23
2024-01-20T04:52:15.800Z,7.82
2024-01-20T04:54:54.187Z,8.40
2024-01-20T04:57:36.593Z,7.90
2024-01-20T05:03:39.183Z,7.80
2024-01-20T05:06:29.667Z,8.70
2024-01-20T05:09:18.874Z,8.25
2024-01-20T05:12:04.605Z,9.38
2024-01-20T05:15:10.717Z,8.60
2024-01-20T05:18:45.333Z,8.15
2024-01-20T05:21:16.087Z,7.80
2024-01-20T05:23:43.331Z,8.95
2024-01-20T05:26:10.514Z,7.95
2024-01-20T05:28:37.584Z,8.57
2024-01-20T05:31:04.772Z,9.35
2024-01-20T05:33:35.066Z,8.00
2024-01-20T05:36:02.214Z,8.77
2024-01-20T05:38:29.370Z,9.07
2024-01-20T05:40:57.513Z,7.57
2024-01-20T05:43:24.818Z,8.25
2024-01-20T05:45:51.929Z,9.90
2024-01-20T05:48:19.239Z,9.32
2024-01-20T05:50:47.325Z,8.20
2024-01-20T05:53:15.510Z,7.97
2024-01-20T05:55:42.552Z,7.93
2024-01-20T05:58:09.592Z,9.48
2024-01-20T06:00:36.769Z,9.25
2024-01-20T06:03:04.209Z,9.20
2024-01-20T06:05:31.372Z,9.10
2024-01-20T06:07:58.495Z,8.18
2024-01-20T06:10:25.932Z,8.05
2024-01-20T06:12:53.211Z,8.10
2024-01-20T06:15:20.361Z,8.13
2024-01-20T06:17:47.482Z,8.33
2024-01-20T06:20:16.855Z,9.07
2024-01-20T06:22:43.871Z,8.27
2024-01-20T06:25:11.392Z,8.10
2024-01-20T06:27:38.620Z,9.23
2024-01-20T06:30:06.452Z,8.00
2024-01-20T06:32:33.695Z,8.55
2024-01-20T06:35:00.924Z,8.48
2024-01-20T06:37:28.017Z,9.35
2024-01-20T06:39:55.050Z,8.73
2024-01-20T06:42:22.725Z,8.70
2024-01-20T06:44:49.803Z,9.32
2024-01-20T06:47:17.026Z,8.98
2024-01-20T06:49:50.680Z,8.65
2024-01-20T06:52:18.105Z,8.27
2024-01-20T06:54:45.348Z,8.20
2024-01-20T06:57:13.904Z,8.32
2024-01-20T06:59:50.810Z,8.55
2024-01-20T07:02:17.952Z,8.35
2024-01-20T07:04:54.208Z,8.60
2024-01-20T07:07:27.173Z,8.37
2024-01-20T07:09:54.243Z,8.75
2024-01-20T07:12:45.906Z,9.88
2024-01-20T07:15:23.933Z,9.32
2024-01-20T07:17:58.846Z,8.93
2024-01-20T07:20:26.484Z,8.40
2024-01-20T07:22:53.652Z,7.43
2024-01-20T07:25:20.840Z,8.10
2024-01-20T07:27:48.477Z,8.77
2024-01-20T07:30:15.750Z,8.05
2024-01-20T07:32:42.866Z,7.57
2024-01-20T07:35:10.459Z,9.13
2024-01-20T07:37:37.700Z,8.35
2024-01-20T07:40:10.816Z,8.55
2024-01-20T07:42:37.972Z,9.65
2024-01-20T07:45:05.704Z,8.00
2024-01-20T07:47:32.907Z,8.32
2024-01-20T07:50:00.207Z,8.98
2024-01-20T07:52:27.372Z,8.38
2024-01-20T07:55:20.400Z,9.13
2024-01-20T07:57:47.457Z,8.40
2024-01-20T08:00:14.830Z,9.15
2024-01-20T08:02:48.447Z,9.57
2024-01-20T08:05:15.662Z,8.25
2024-01-20T08:07:43.711Z,8.63
2024-01-20T08:10:11.362Z,9.30
2024-01-20T08:12:41.094Z,9.68
2024-01-20T08:15:10.974Z,8.77
2024-01-20T08:17:38.430Z,8.13
2024-01-20T08:24:35.159Z,9.03
2024-01-20T08:27:05.861Z,7.88
2024-01-20T08:29:35.194Z,8.55
2024-01-20T08:32:02.235Z,8.82
2024-01-20T08:34:29.429Z,9.50
2024-01-20T08:36:56.527Z,7.73
2024-01-20T08:39:23.721Z,8.80
2024-01-20T08:41:50.906Z,8.23
2024-01-20T08:45:01.366Z,9.05
2024-01-20T08:48:07.643Z,8.30
2024-01-20T08:50:48.771Z,8.40
2024-01-20T08:53:15.871Z,8.80
2024-01-20T08:55:43.046Z,8.25
2024-01-20T08:58:11.226Z,8.95
2024-01-20T09:00:38.917Z,9.25
2024-01-20T09:03:06.177Z,9.43
2024-01-20T09:05:38.160Z,9.07
2024-01-20T09:08:09.142Z,8.15
2024-01-20T09:10:37.635Z,9.63
2024-01-20T09:13:05.298Z,9.55
2024-01-20T09:15:33.360Z,8.63
2024-01-20T09:18:01.250Z,9.40
2024-01-20T09:20:28.715Z,8.82
2024-01-20T09:22:58.177Z,8.90
2024-01-20T09:25:25.290Z,8.77
2024-01-20T09:27:52.532Z,8.63
2024-01-20T09:30:19.657Z,14.80
2024-01-20T09:32:47.842Z,9.27
2024-01-20T09:35:14.995Z,8.70
2024-01-20T09:37:44.969Z,8.88
2024-01-20T09:40:14.756Z,9.10
2024-01-20T09:42:42.758Z,9.32
2024-01-20T09:45:13.319Z,8.85
2024-01-20T09:47:43.126Z,7.60
2024-01-20T09:50:10.975Z,8.50
2024-01-20T09:52:56.576Z,9.00
2024-01-20T09:55:24.940Z,8.20
2024-01-20T09:57:53.446Z,8.40
2024-01-20T10:00:23.203Z,8.02
2024-01-20T10:02:50.458Z,8.60
2024-01-20T10:05:29.853Z,9.60
2024-01-20T10:07:58.253Z,8.50
2024-01-20T10:10:25.329Z,9.18
2024-01-20T10:12:54.749Z,9.15
2024-01-20T10:15:29.833Z,9.65
2024-01-20T10:18:00.850Z,8.50
2024-01-20T10:20:32.651Z,9.30
2024-01-20T10:23:05.379Z,8.25
2024-01-20T10:25:35.683Z,8.32
2024-01-20T10:28:03.090Z,8.77
2024-01-20T10:30:31.365Z,8.97
2024-01-20T10:35:30.735Z,9.50
2024-01-20T10:38:01.583Z,10.00
2024-01-20T10:40:29.163Z,8.70
2024-01-20T10:43:01.350Z,9.43
2024-01-20T10:45:34.443Z,9.00
2024-01-20T10:48:08.195Z,8.68
2024-01-20T10:50:39.981Z,8.82
2024-01-20T10:53:08.773Z,9.60
2024-01-20T10:55:48.400Z,9.23
2024-01-20T10:58:23.038Z,9.57
2024-01-20T11:00:51.874Z,10.13
2024-01-20T11:03:21.969Z,9.27
2024-01-20T11:05:49.714Z,8.73
2024-01-20T11:08:25.655Z,9.50
2024-01-20T11:10:55.478Z,7.30
2024-01-20T11:13:29.264Z,9.32
2024-01-20T11:15:59.167Z,9.85
2024-01-20T11:18:28.784Z,8.73
2024-01-20T11:21:04.802Z,9.90
2024-01-20T11:23:32.396Z,9.27
2024-01-20T11:26:11.294Z,8.98
2024-01-20T11:28:46.630Z,8.88
2024-01-20T11:31:21.070Z,10.30
2024-01-20T11:33:48.464Z,8.90
2024-01-20T11:36:17.364Z,8.63
2024-01-20T11:38:45.140Z,9.82
2024-01-20T11:41:12.625Z,8.90
2024-01-20T11:43:46.563Z,8.40
2024-01-20T11:46:13.885Z,9.70
2024-01-20T11:48:41.698Z,10.13
2024-01-20T11:51:08.857Z,9.07
2024-01-20T11:53:36.027Z,10.20
2024-01-20T11:56:04.439Z,9.15
2024-01-20T11:58:32.009Z,8.87
2024-01-20T12:01:00.795Z,9.05
2024-01-20T12:03:28.713Z,9.02
2024-01-20T12:05:56.723Z,8.38
2024-01-20T12:08:24.000Z,8.95
2024-01-20T12:10:52.197Z,8.70
2024-01-20T12:13:19.650Z,8.50
2024-01-20T12:15:49.210Z,8.48
2024-01-20T12:18:18.456Z,8.30
2024-01-20T12:20:45.917Z,9.18
2024-01-20T12:23:24.211Z,8.57
2024-01-20T12:25:54.647Z,8.60
2024-01-20T12:28:22.677Z,8.32
2024-01-20T12:30:50.334Z,9.25
2024-01-20T12:33:17.554Z,10.20
2024-01-20T12:35:44.963Z,9.43
2024-01-20T12:38:12.526Z,8.70
2024-01-20T12:40:39.587Z,9.60
2024-01-20T12:43:06.821Z,9.80
2024-01-20T12:45:34.130Z,9.60
2024-01-20T12:48:01.317Z,10.43
2024-01-20T12:50:28.548Z,8.60
2024-01-20T12:52:55.738Z,8.98
2024-01-20T12:55:22.969Z,9.98
2024-01-20T12:57:50.122Z,8.98
2024-01-20T13:00:17.658Z,8.63
2024-01-20T13:02:44.941Z,9.38
2024-01-20T13:05:12.098Z,8.45
2024-01-20T13:07:39.517Z,9.50
2024-01-20T13:10:07.052Z,8.50
2024-01-20T13:12:34.414Z,8.47
2024-01-20T13:15:01.930Z,9.43
2024-01-20T13:17:32.879Z,8.52
2024-01-20T13:20:00.016Z,9.20
2024-01-20T13:22:27.935Z,8.75
2024-01-20T13:24:58.347Z,9.27
2024-01-20T13:27:25.668Z,9.02
2024-01-20T13:29:52.803Z,8.18
2024-01-20T13:32:19.894Z,7.63
2024-01-20T13:34:47.192Z,8.57
2024-01-20T13:37:14.442Z,9.07
2024-01-20T13:39:41.660Z,9.05
2024-01-20T13:42:08.935Z,7.97
2024-01-20T13:44:36.038Z,8.38
2024-01-20T13:47:03.200Z,9.68
2024-01-20T13:49:32.379Z,8.07
2024-01-20T13:51:59.664Z,8.93
2024-01-20T13:54:26.991Z,8.55
2024-01-20T13:56:54.061Z,8.43
2024-01-20T13:59:21.116Z,8.70
2024-01-20T14:01:49.114Z,8.53
2024-01-20T14:04:16.355Z,8.52
2024-01-20T14:06:43.605Z,8.35
2024-01-20T14:09:11.351Z,9.43
2024-01-20T14:11:38.606Z,7.70
2024-01-20T14:14:05.748Z,8.17
2024-01-20T14:16:33.005Z,9.30
2024-01-20T14:19:01.085Z,8.07
2024-01-20T14:21:29.185Z,8.50
2024-01-20T14:23:56.373Z,9.27
2024-01-20T14:26:23.481Z,8.00
2024-01-20T14:28:51.261Z,9.32
2024-01-20T14:31:18.369Z,8.48
2024-01-20T14:33:45.468Z,8.65
2024-01-20T14:36:12.556Z,8.98
2024-01-20T14:38:39.683Z,7.90
2024-01-20T14:41:06.849Z,9.73
2024-01-20T14:43:33.946Z,9.35
2024-01-20T14:46:01.089Z,8.57
2024-01-20T14:48:28.240Z,12.63
2024-01-20T14:50:55.409Z,8.90
2024-01-20T14:53:24.436Z,9.32
2024-01-20T14:55:51.551Z,9.35
2024-01-20T14:58:18.671Z,7.90
2024-01-20T15:00:46.010Z,9.52
2024-01-20T15:03:13.426Z,9.60
2024-01-20T15:05:40.635Z,9.25
2024-01-20T15:08:07.956Z,9.00
2024-01-20T15:10:35.026Z,9.57
2024-01-20T15:13:03.331Z,8.15
2024-01-20T15:15:30.620Z,9.17
2024-01-20T15:17:57.789Z,9.68
2024-01-20T15:20:24.898Z,9.15
2024-01-20T15:22:52.039Z,9.10
2024-01-20T15:25:20.072Z,8.85
2024-01-20T15:27:49.075Z,9.43
2024-01-20T15:30:16.352Z,9.50
2024-01-20T15:32:43.612Z,9.75
2024-01-20T15:35:10.885Z,9.80
2024-01-20T15:37:37.933Z,9.40
2024-01-20T15:40:11.333Z,11.03
2024-01-20T15:42:41.599Z,9.68
2024-01-20T15:45:09.543Z,9.60
2024-01-20T15:47:36.681Z,8.80
2024-01-20T15:50:05.126Z,9.60
2024-01-20T15:52:32.439Z,9.23
2024-01-20T15:55:00.471Z,9.30
2024-01-20T15:57:27.770Z,9.45
2024-01-20T15:59:54.971Z,10.00
2024-01-20T16:02:22.134Z,9.38
2024-01-20T16:04:49.199Z,9.27
2024-01-20T16:07:16.658Z,8.88
2024-01-20T16:09:44.101Z,9.80
2024-01-20T16:12:11.673Z,10.25
2024-01-20T16:14:38.886Z,9.70
2024-01-20T16:17:05.970Z,10.40
2024-01-20T16:19:33.137Z,11.43
2024-01-20T16:22:00.311Z,11.07
2024-01-20T16:24:27.550Z,10.65
2024-01-20T16:26:54.836Z,10.93
2024-01-20T16:29:21.995Z,10.07
2024-01-20T16:31:49.362Z,10.50
2024-01-20T16:34:16.671Z,10.40
2024-01-20T16:36:44.110Z,9.73
2024-01-20T16:39:11.811Z,10.80
2024-01-20T16:41:42.005Z,10.77
2024-01-20T16:44:09.113Z,10.75
2024-01-20T16:46:39.437Z,10.50
2024-01-20T16:49:07.058Z,10.60
2024-01-20T16:51:34.262Z,10.48
2024-01-20T16:54:04.445Z,10.67
2024-01-20T16:56:31.479Z,10.43
2024-01-20T16:59:01.712Z,10.23
2024-01-20T17:01:28.795Z,9.95
2024-01-20T17:03:55.877Z,11.48
2024-01-20T17:06:23.670Z,11.33
2024-01-20T17:08:50.860Z,10.80
2024-01-20T17:11:18.016Z,10.75
2024-01-20T17:13:46.118Z,11.15
2024-01-20T17:16:13.245Z,9.52
2024-01-20T17:18:40.511Z,10.87
2024-01-20T17:21:16.461Z,10.02
2024-01-20T17:23:44.750Z,10.50
2024-01-20T17:26:12.176Z,11.40
2024-01-20T17:28:39.378Z,12.45
2024-01-20T17:31:06.540Z,10.63
2024-01-20T17:33:33.743Z,10.60
2024-01-20T17:36:01.529Z,10.43
2024-01-20T17:38:28.555Z,9.50
2024-01-20T17:40:56.074Z,10.63
2024-01-20T17:43:23.100Z,17.90
2024-01-20T17:45:50.525Z,11.25
2024-01-20T17:48:17.944Z,11.80
2024-01-20T17:50:45.141Z,9.38
2024-01-20T17:53:13.804Z,9.88
2024-01-20T17:55:41.514Z,9.87
2024-01-20T17:58:10.342Z,10.48
2024-01-20T18:00:38.183Z,9.90
2024-01-20T18:03:14.749Z,10.15
2024-01-20T18:05:42.035Z,10.93
2024-01-20T18:08:10.093Z,9.87
2024-01-20T18:10:37.130Z,9.40
2024-01-20T18:13:06.886Z,9.10
2024-01-20T18:15:34.096Z,10.00
2024-01-20T18:18:02.234Z,8.57
2024-01-20T18:20:29.512Z,9.37
2024-01-20T18:22:56.603Z,9.90
2024-01-20T18:25:23.701Z,10.05
2024-01-20T18:27:51.024Z,9.60
2024-01-20T18:30:19.094Z,9.73
2024-01-20T18:32:46.229Z,9.90
2024-01-20T18:35:13.325Z,9.40
2024-01-20T18:37:43.015Z,8.93
2024-01-20T18:40:11.386Z,10.13
2024-01-20T18:42:38.979Z,9.63
2024-01-20T18:45:06.874Z,10.60
2024-01-20T18:47:34.036Z,9.13
2024-01-20T18:50:01.144Z,10.45
2024-01-20T18:52:29.085Z,9.73
2024-01-20T18:54:56.323Z,9.68
2024-01-20T18:57:23.640Z,9.77
2024-01-20T18:59:50.769Z,9.55
2024-01-20T19:02:19.800Z,10.25
2024-01-20T19:04:47.193Z,10.13
2024-01-20T19:07:14.367Z,9.10
2024-01-20T19:09:41.600Z,8.83
2024-01-20T19:12:09.041Z,8.45
2024-01-20T19:14:36.314Z,8.20
2024-01-20T19:17:03.450Z,8.38
2024-01-20T19:19:32.922Z,7.70
2024-01-20T19:21:59.989Z,7.57
2024-01-20T19:24:27.402Z,8.05
2024-01-20T19:26:54.478Z,7.53
2024-01-20T19:29:23.976Z,6.38
2024-01-20T19:31:51.234Z,7.13
2024-01-20T19:34:19.072Z,7.67
2024-01-20T19:36:46.703Z,7.10
2024-01-20T19:39:14.472Z,6.68
2024-01-20T19:41:41.609Z,7.15
2024-01-20T19:44:08.781Z,7.82
2024-01-20T19:46:41.135Z,7.30
2024-01-20T19:49:08.864Z,7.63
2024-01-20T19:51:41.555Z,7.90
2024-01-20T19:54:09.735Z,7.30
2024-01-20T19:56:42.521Z,7.32
2024-01-20T19:59:10.409Z,7.73
2024-01-20T20:01:45.745Z,7.35
2024-01-20T20:04:17.748Z,8.00
2024-01-20T20:06:49.409Z,7.35
2024-01-20T20:09:17.961Z,9.45
2024-01-20T20:11:45.276Z,7.83
2024-01-20T20:14:13.378Z,10.90
2024-01-20T20:16:41.583Z,9.05
2024-01-20T20:19:10.683Z,9.32
2024-01-20T20:21:38.038Z,7.53
2024-01-20T20:24:05.755Z,8.03
2024-01-20T20:26:32.900Z,8.30
2024-01-20T20:29:00.057Z,8.20
2024-01-20T20:31:28.380Z,8.80
2024-01-20T20:33:55.817Z,7.95
2024-01-20T20:36:23.064Z,8.07
2024-01-20T20:38:50.295Z,7.28
2024-01-20T20:41:17.488Z,7.72
2024-01-20T20:43:44.547Z,7.80
2024-01-20T20:46:11.566Z,7.53
2024-01-20T20:48:38.703Z,6.93
2024-01-20T20:51:06.011Z,8.10
2024-01-20T20:53:33.117Z,7.57
2024-01-20T20:56:00.257Z,7.70
2024-01-20T20:58:27.374Z,8.75
2024-01-20T21:00:54.562Z,9.33
2024-01-20T21:03:21.948Z,8.90
2024-01-20T21:05:49.532Z,7.85
2024-01-20T21:08:17.067Z,8.25
2024-01-20T21:10:44.145Z,8.77
2024-01-20T21:13:11.596Z,7.37
2024-01-20T21:15:39.325Z,7.30
2024-01-20T21:18:06.650Z,6.88
2024-01-20T21:20:34.148Z,7.15
2024-01-20T21:23:01.321Z,7.30
2024-01-20T21:25:30.701Z,9.83
2024-01-20T21:27:58.563Z,13.95
2024-01-20T21:30:25.760Z,7.40
2024-01-20T21:32:53.097Z,10.18
2024-01-20T21:35:20.430Z,6.13
2024-01-20T21:37:47.702Z,5.90
2024-01-20T21:40:14.948Z,6.40
2024-01-20T21:42:42.178Z,5.65
2024-01-20T21:45:10.964Z,7.38
2024-01-20T21:47:38.323Z,5.10
2024-01-20T21:50:06.589Z,5.20
2024-01-20T21:52:33.724Z,4.70
2024-01-20T21:55:02.930Z,4.97
2024-01-20T21:57:33.247Z,4.80
2024-01-20T22:00:00.580Z,5.47
2024-01-20T22:02:28.775Z,5.27
2024-01-20T22:04:55.815Z,5.22
2024-01-20T22:07:23.632Z,4.95
2024-01-20T22:09:50.859Z,5.35
2024-01-20T22:12:18.113Z,5.97
2024-01-20T22:14:45.275Z,6.50
2024-01-20T22:17:12.459Z,5.03
2024-01-20T22:19:39.696Z,5.43
2024-01-20T22:22:07.013Z,5.70
2024-01-20T22:24:34.268Z,5.68
2024-01-20T22:27:01.402Z,5.50
2024-01-20T22:29:31.793Z,5.15
2024-01-20T22:32:00.213Z,4.75
2024-01-20T22:34:32.346Z,5.38
2024-01-20T22:37:00.544Z,14.07
2024-01-20T22:39:28.561Z,11.23
2024-01-20T22:41:55.868Z,8.98
2024-01-20T22:44:22.980Z,7.00
2024-01-20T22:46:51.116Z,5.28
2024-01-20T22:49:18.556Z,5.93
2024-01-20T22:51:45.816Z,5.63
2024-01-20T22:54:15.084Z,4.97
2024-01-20T22:56:42.248Z,5.10
2024-01-20T22:59:09.426Z,5.35
2024-01-20T23:01:36.650Z,5.70
2024-01-20T23:04:06.475Z,5.97
2024-01-20T23:06:33.816Z,5.43
2024-01-20T23:09:02.285Z,5.00
2024-01-20T23:11:29.480Z,5.20
2024-01-20T23:13:56.796Z,5.40
2024-01-20T23:16:23.878Z,5.47
2024-01-20T23:18:51.490Z,5.45
2024-01-20T23:21:18.688Z,5.88
2024-01-20T23:23:45.820Z,5.80
2024-01-20T23:26:17.448Z,5.10
2024-01-20T23:28:44.720Z,5.70
2024-01-20T23:31:12.382Z,5.35
2024-01-20T23:33:39.856Z,6.03
2024-01-20T23:36:07.447Z,6.40
2024-01-20T23:38:34.987Z,6.00
2024-01-20T23:41:02.159Z,5.87
2024-01-20T23:43:29.215Z,5.40
2024-01-20T23:45:56.477Z,5.40
2024-01-20T23:48:23.741Z,5.65
2024-01-20T23:50:51.044Z,6.82
2024-01-20T23:53:18.232Z,6.93
2024-01-20T23:55:45.433Z,5.93
2024-01-20T23:58:12.663Z,5.55
